sensor_id;sensor_type;location;lat;lon;timestamp;pressure;altitude;pressure_sealevel;temperature;humidity
64889;BME280;51386;53.082;8.816;2023-04-01T00:00:01;99318.69;;;15.92;62.48
64889;BME280;51386;53.082;8.816;2023-04-01T00:02:28;99312.59;;;15.92;62.36
64889;BME280;51386;53.082;8.816;2023-04-01T00:04:55;99309.66;;;15.93;62.49
64889;BME280;51386;53.082;8.816;2023-04-01T00:07:22;99314.50;;;15.96;62.43
64889;BME280;51386;53.082;8.816;2023-04-01T00:09:51;99315.06;;;15.98;62.63
64889;BME280;51386;53.082;8.816;2023-04-01T00:12:18;99308.72;;;15.99;62.51
64889;BME280;51386;53.082;8.816;2023-04-01T00:14:45;99310.31;;;16.00;62.59
64889;BME280;51386;53.082;8.816;2023-04-01T00:17:12;99309.00;;;16.03;62.25
64889;BME280;51386;53.082;8.816;2023-04-01T00:19:39;99307.72;;;16.05;62.03
64889;BME280;51386;53.082;8.816;2023-04-01T00:22:06;99302.25;;;15.95;62.39
64889;BME280;51386;53.082;8.816;2023-04-01T00:24:33;99297.88;;;15.84;62.80
64889;BME280;51386;53.082;8.816;2023-04-01T00:27:01;99304.41;;;15.77;63.04
64889;BME280;51386;53.082;8.816;2023-04-01T00:29:28;99302.09;;;15.64;63.57
64889;BME280;51386;53.082;8.816;2023-04-01T00:31:57;99303.47;;;15.66;63.51
64889;BME280;51386;53.082;8.816;2023-04-01T00:34:24;99305.38;;;15.71;63.07
64889;BME280;51386;53.082;8.816;2023-04-01T00:36:52;99305.69;;;15.74;63.54
64889;BME280;51386;53.082;8.816;2023-04-01T00:39:19;99304.31;;;15.72;63.40
64889;BME280;51386;53.082;8.816;2023-04-01T00:41:47;99298.78;;;15.73;63.63
64889;BME280;51386;53.082;8.816;2023-04-01T00:44:20;99313.56;;;15.69;63.57
64889;BME280;51386;53.082;8.816;2023-04-01T00:46:48;99301.66;;;15.72;63.42
64889;BME280;51386;53.082;8.816;2023-04-01T00:49:19;99307.31;;;15.75;63.33
64889;BME280;51386;53.082;8.816;2023-04-01T00:51:51;99308.41;;;15.79;63.17
64889;BME280;51386;53.082;8.816;2023-04-01T00:54:21;99307.13;;;15.82;62.96
64889;BME280;51386;53.082;8.816;2023-04-01T00:56:54;99309.84;;;15.87;62.91
64889;BME280;51386;53.082;8.816;2023-04-01T00:59:29;99306.47;;;15.91;62.57
64889;BME280;51386;53.082;8.816;2023-04-01T01:01:57;99305.50;;;15.97;62.70
64889;BME280;51386;53.082;8.816;2023-04-01T01:04:26;99305.81;;;16.01;62.71
64889;BME280;51386;53.082;8.816;2023-04-01T01:07:06;99310.31;;;16.00;62.41
64889;BME280;51386;53.082;8.816;2023-04-01T01:09:48;99314.03;;;15.99;62.33
64889;BME280;51386;53.082;8.816;2023-04-01T01:12:25;99315.59;;;16.00;62.64
64889;BME280;51386;53.082;8.816;2023-04-01T01:15:08;99313.50;;;16.02;62.31
64889;BME280;51386;53.082;8.816;2023-04-01T01:17:54;99311.44;;;16.04;62.00
64889;BME280;51386;53.082;8.816;2023-04-01T01:21:09;99306.59;;;16.01;62.18
64889;BME280;51386;53.082;8.816;2023-04-01T01:24:30;99309.25;;;16.01;62.13
64889;BME280;51386;53.082;8.816;2023-04-01T01:27:04;99309.34;;;16.06;62.07
64889;BME280;51386;53.082;8.816;2023-04-01T01:30:02;99311.09;;;16.01;62.34
64889;BME280;51386;53.082;8.816;2023-04-01T01:32:55;99314.56;;;16.01;61.76
64889;BME280;51386;53.082;8.816;2023-04-01T01:35:30;99311.44;;;16.04;62.02
64889;BME280;51386;53.082;8.816;2023-04-01T01:38:03;99309.34;;;16.06;61.78
64889;BME280;51386;53.082;8.816;2023-04-01T01:40:34;99313.84;;;16.06;61.89
64889;BME280;51386;53.082;8.816;2023-04-01T01:43:08;99311.44;;;16.04;61.86
64889;BME280;51386;53.082;8.816;2023-04-01T01:45:41;99314.25;;;15.98;62.07
64889;BME280;51386;53.082;8.816;2023-04-01T01:48:11;99309.38;;;15.90;62.16
64889;BME280;51386;53.082;8.816;2023-04-01T01:50:42;99307.38;;;15.80;62.68
64889;BME280;51386;53.082;8.816;2023-04-01T01:53:12;99308.88;;;15.76;62.87
64889;BME280;51386;53.082;8.816;2023-04-01T01:55:44;99310.03;;;15.80;62.85
64889;BME280;51386;53.082;8.816;2023-04-01T01:58:16;99315.88;;;15.82;62.81
64889;BME280;51386;53.082;8.816;2023-04-01T02:00:50;99308.75;;;15.83;62.49
64889;BME280;51386;53.082;8.816;2023-04-01T02:03:21;99312.75;;;15.85;62.92
64889;BME280;51386;53.082;8.816;2023-04-01T02:05:55;99311.13;;;15.84;62.75
64889;BME280;51386;53.082;8.816;2023-04-01T02:08:27;99326.59;;;15.87;62.70
64889;BME280;51386;53.082;8.816;2023-04-01T02:10:59;99321.28;;;15.87;62.77
64889;BME280;51386;53.082;8.816;2023-04-01T02:13:31;99317.81;;;15.87;62.79
64889;BME280;51386;53.082;8.816;2023-04-01T02:16:10;99317.00;;;15.86;62.81
64889;BME280;51386;53.082;8.816;2023-04-01T02:18:41;99323.38;;;15.85;62.69
64889;BME280;51386;53.082;8.816;2023-04-01T02:21:12;99325.78;;;15.87;62.82
64889;BME280;51386;53.082;8.816;2023-04-01T02:23:40;99328.16;;;15.88;62.46
64889;BME280;51386;53.082;8.816;2023-04-01T02:26:11;99324.97;;;15.86;62.63
64889;BME280;51386;53.082;8.816;2023-04-01T02:28:41;99318.63;;;15.87;62.79
64889;BME280;51386;53.082;8.816;2023-04-01T02:31:10;99331.88;;;15.87;62.87
64889;BME280;51386;53.082;8.816;2023-04-01T02:33:39;99328.97;;;15.89;62.75
64889;BME280;51386;53.082;8.816;2023-04-01T02:36:12;99326.81;;;15.86;62.71
64889;BME280;51386;53.082;8.816;2023-04-01T02:38:42;99325.44;;;15.83;62.88
64889;BME280;51386;53.082;8.816;2023-04-01T02:41:09;99329.47;;;15.86;63.03
64889;BME280;51386;53.082;8.816;2023-04-01T02:43:36;99330.53;;;15.85;62.85
64889;BME280;51386;53.082;8.816;2023-04-01T02:46:03;99324.97;;;15.86;62.78
64889;BME280;51386;53.082;8.816;2023-04-01T02:48:30;99333.19;;;15.85;62.82
64889;BME280;51386;53.082;8.816;2023-04-01T02:50:57;99332.94;;;15.86;63.00
64889;BME280;51386;53.082;8.816;2023-04-01T02:53:25;99340.66;;;15.88;62.62
64889;BME280;51386;53.082;8.816;2023-04-01T02:55:52;99332.38;;;15.84;62.47
64889;BME280;51386;53.082;8.816;2023-04-01T02:58:19;99338.47;;;15.85;62.54
64889;BME280;51386;53.082;8.816;2023-04-01T03:00:46;99338.72;;;15.83;62.35
64889;BME280;51386;53.082;8.816;2023-04-01T03:03:13;99339.28;;;15.85;62.47
64889;BME280;51386;53.082;8.816;2023-04-01T03:05:41;99337.69;;;15.84;62.48
64889;BME280;51386;53.082;8.816;2023-04-01T03:08:08;99344.28;;;15.82;62.52
64889;BME280;51386;53.082;8.816;2023-04-01T03:10:36;99346.03;;;15.76;62.68
64889;BME280;51386;53.082;8.816;2023-04-01T03:13:03;99348.94;;;15.75;62.73
64889;BME280;51386;53.082;8.816;2023-04-01T03:15:30;99348.69;;;15.76;62.61
64889;BME280;51386;53.082;8.816;2023-04-01T03:17:57;99346.03;;;15.76;62.78
64889;BME280;51386;53.082;8.816;2023-04-01T03:20:25;99341.78;;;15.75;62.45
64889;BME280;51386;53.082;8.816;2023-04-01T03:22:52;99345.41;;;15.69;62.52
64889;BME280;51386;53.082;8.816;2023-04-01T03:25:19;99352.22;;;15.65;62.97
64889;BME280;51386;53.082;8.816;2023-04-01T03:27:47;99352.63;;;15.57;63.16
64889;BME280;51386;53.082;8.816;2023-04-01T03:30:14;99349.41;;;15.55;62.80
64889;BME280;51386;53.082;8.816;2023-04-01T03:32:41;99355.34;;;15.45;63.27
64889;BME280;51386;53.082;8.816;2023-04-01T03:35:09;99353.75;;;15.44;63.64
64889;BME280;51386;53.082;8.816;2023-04-01T03:37:37;99354.56;;;15.45;63.54
64889;BME280;51386;53.082;8.816;2023-04-01T03:40:05;99352.38;;;15.42;63.39
64889;BME280;51386;53.082;8.816;2023-04-01T03:42:33;99362.88;;;15.37;63.64
64889;BME280;51386;53.082;8.816;2023-04-01T03:45:02;99362.53;;;15.33;63.72
64889;BME280;51386;53.082;8.816;2023-04-01T03:47:29;99364.41;;;15.33;63.78
64889;BME280;51386;53.082;8.816;2023-04-01T03:49:56;99362.22;;;15.30;63.71
64889;BME280;51386;53.082;8.816;2023-04-01T03:52:23;99365.34;;;15.27;63.63
64889;BME280;51386;53.082;8.816;2023-04-01T03:54:50;99363.16;;;15.24;63.98
64889;BME280;51386;53.082;8.816;2023-04-01T03:57:17;99367.44;;;15.25;64.06
64889;BME280;51386;53.082;8.816;2023-04-01T03:59:44;99369.63;;;15.28;63.84
64889;BME280;51386;53.082;8.816;2023-04-01T04:02:12;99381.03;;;15.28;63.85
64889;BME280;51386;53.082;8.816;2023-04-01T04:04:39;99372.03;;;15.29;63.93
64889;BME280;51386;53.082;8.816;2023-04-01T04:07:06;99383.91;;;15.27;63.92
64889;BME280;51386;53.082;8.816;2023-04-01T04:09:33;99373.88;;;15.29;63.85
64889;BME280;51386;53.082;8.816;2023-04-01T04:12:01;99377.66;;;15.33;63.65
64889;BME280;51386;53.082;8.816;2023-04-01T04:14:27;99381.34;;;15.32;63.79
64889;BME280;51386;53.082;8.816;2023-04-01T04:16:54;99382.97;;;15.33;63.65
64889;BME280;51386;53.082;8.816;2023-04-01T04:19:23;99374.44;;;15.31;63.65
64889;BME280;51386;53.082;8.816;2023-04-01T04:21:49;99383.09;;;15.26;63.68
64889;BME280;51386;53.082;8.816;2023-04-01T04:24:16;99380.38;;;15.21;63.89
64889;BME280;51386;53.082;8.816;2023-04-01T04:26:43;99386.47;;;15.22;63.87
64889;BME280;51386;53.082;8.816;2023-04-01T04:29:10;99385.69;;;15.21;63.83
64889;BME280;51386;53.082;8.816;2023-04-01T04:31:37;99389.91;;;15.22;63.96
64889;BME280;51386;53.082;8.816;2023-04-01T04:34:04;99398.03;;;15.16;63.80
64889;BME280;51386;53.082;8.816;2023-04-01T04:36:32;99387.78;;;15.08;64.16
64889;BME280;51386;53.082;8.816;2023-04-01T04:38:59;99391.00;;;15.10;64.23
64889;BME280;51386;53.082;8.816;2023-04-01T04:41:29;99404.25;;;15.10;64.16
64889;BME280;51386;53.082;8.816;2023-04-01T04:43:56;99394.94;;;15.07;64.26
64889;BME280;51386;53.082;8.816;2023-04-01T04:46:25;99403.13;;;15.06;64.33
64889;BME280;51386;53.082;8.816;2023-04-01T04:48:52;99413.72;;;15.06;64.61
64889;BME280;51386;53.082;8.816;2023-04-01T04:51:21;99408.78;;;15.09;64.23
64889;BME280;51386;53.082;8.816;2023-04-01T04:53:50;99415.34;;;15.07;64.64
64889;BME280;51386;53.082;8.816;2023-04-01T04:56:19;99417.75;;;15.08;64.27
64889;BME280;51386;53.082;8.816;2023-04-01T04:58:48;99408.84;;;15.14;64.13
64889;BME280;51386;53.082;8.816;2023-04-01T05:01:16;99412.41;;;15.20;63.86
64889;BME280;51386;53.082;8.816;2023-04-01T05:03:44;99418.28;;;15.22;63.92
64889;BME280;51386;53.082;8.816;2023-04-01T05:06:17;99418.28;;;15.22;63.85
64889;BME280;51386;53.082;8.816;2023-04-01T05:08:45;99419.44;;;15.26;63.64
64889;BME280;51386;53.082;8.816;2023-04-01T05:11:16;99417.34;;;15.28;63.76
64889;BME280;51386;53.082;8.816;2023-04-01T05:13:44;99418.00;;;15.35;63.70
64889;BME280;51386;53.082;8.816;2023-04-01T05:16:15;99419.94;;;15.39;63.52
64889;BME280;51386;53.082;8.816;2023-04-01T05:18:43;99427.63;;;15.41;63.57
64889;BME280;51386;53.082;8.816;2023-04-01T05:21:12;99429.59;;;15.45;63.55
64889;BME280;51386;53.082;8.816;2023-04-01T05:23:40;99426.22;;;15.50;63.02
64889;BME280;51386;53.082;8.816;2023-04-01T05:26:09;99431.06;;;15.53;62.93
64889;BME280;51386;53.082;8.816;2023-04-01T05:28:38;99429.47;;;15.52;62.66
64889;BME280;51386;53.082;8.816;2023-04-01T05:31:07;99436.84;;;15.50;62.80
64889;BME280;51386;53.082;8.816;2023-04-01T05:33:34;99436.84;;;15.50;62.79
64889;BME280;51386;53.082;8.816;2023-04-01T05:36:10;99438.00;;;15.54;62.81
64889;BME280;51386;53.082;8.816;2023-04-01T05:38:39;99434.84;;;15.57;62.54
64889;BME280;51386;53.082;8.816;2023-04-01T05:41:06;99444.53;;;15.63;62.64
64889;BME280;51386;53.082;8.816;2023-04-01T05:43:35;99439.31;;;15.68;62.55
64889;BME280;51386;53.082;8.816;2023-04-01T05:46:04;99445.72;;;15.72;62.41
64889;BME280;51386;53.082;8.816;2023-04-01T05:48:32;99443.63;;;15.74;62.43
64889;BME280;51386;53.082;8.816;2023-04-01T05:50:59;99452.16;;;15.76;62.20
64889;BME280;51386;53.082;8.816;2023-04-01T05:53:26;99450.09;;;15.78;62.38
64889;BME280;51386;53.082;8.816;2023-04-01T05:55:53;99452.81;;;15.83;62.06
64889;BME280;51386;53.082;8.816;2023-04-01T05:58:20;99453.97;;;15.87;61.76
64889;BME280;51386;53.082;8.816;2023-04-01T06:00:47;99457.16;;;15.89;61.66
64889;BME280;51386;53.082;8.816;2023-04-01T06:03:15;99456.09;;;15.90;62.06
64889;BME280;51386;53.082;8.816;2023-04-01T06:05:43;99463.59;;;15.93;61.64
64889;BME280;51386;53.082;8.816;2023-04-01T06:08:13;99465.22;;;15.94;61.64
64889;BME280;51386;53.082;8.816;2023-04-01T06:11:00;99466.81;;;15.95;61.85
64889;BME280;51386;53.082;8.816;2023-04-01T06:13:47;99466.81;;;15.95;61.68
64889;BME280;51386;53.082;8.816;2023-04-01T06:16:34;99475.19;;;15.87;61.45
64889;BME280;51386;53.082;8.816;2023-04-01T06:19:24;99476.69;;;15.83;61.66
64889;BME280;51386;53.082;8.816;2023-04-01T06:22:37;99482.00;;;15.83;61.44
64889;BME280;51386;53.082;8.816;2023-04-01T06:25:47;99476.69;;;15.83;62.02
64889;BME280;51386;53.082;8.816;2023-04-01T06:28:58;99480.97;;;15.84;61.76
64889;BME280;51386;53.082;8.816;2023-04-01T06:31:45;99482.66;;;15.90;61.76
64889;BME280;51386;53.082;8.816;2023-04-01T06:34:50;99483.72;;;15.89;61.53
64889;BME280;51386;53.082;8.816;2023-04-01T06:37:47;99495.13;;;15.90;61.44
64889;BME280;51386;53.082;8.816;2023-04-01T06:40:52;99494.69;;;15.81;61.30
64889;BME280;51386;53.082;8.816;2023-04-01T06:43:37;99491.09;;;15.87;61.45
64889;BME280;51386;53.082;8.816;2023-04-01T06:46:13;99498.66;;;15.95;61.22
64889;BME280;51386;53.082;8.816;2023-04-01T06:49:02;99500.28;;;15.96;61.35
64889;BME280;51386;53.082;8.816;2023-04-01T06:51:43;99501.97;;;16.02;61.16
64889;BME280;51386;53.082;8.816;2023-04-01T06:54:19;99508.41;;;16.06;60.94
64889;BME280;51386;53.082;8.816;2023-04-01T06:56:54;99506.06;;;16.10;61.05
64889;BME280;51386;53.082;8.816;2023-04-01T06:59:28;99510.91;;;16.13;61.14
64889;BME280;51386;53.082;8.816;2023-04-01T07:02:01;99510.19;;;16.17;61.31
64889;BME280;51386;53.082;8.816;2023-04-01T07:04:34;99516.41;;;16.23;60.82
64889;BME280;51386;53.082;8.816;2023-04-01T07:07:25;99519.34;;;16.26;61.15
64889;BME280;51386;53.082;8.816;2023-04-01T07:09:57;99520.50;;;16.31;61.00
64889;BME280;51386;53.082;8.816;2023-04-01T07:12:37;99526.38;;;16.33;60.61
64889;BME280;51386;53.082;8.816;2023-04-01T07:15:18;99535.47;;;16.37;60.63
64889;BME280;51386;53.082;8.816;2023-04-01T07:17:53;99534.72;;;16.41;60.90
64889;BME280;51386;53.082;8.816;2023-04-01T07:20:26;99541.41;;;16.44;60.38
64889;BME280;51386;53.082;8.816;2023-04-01T07:22:59;99537.94;;;16.43;60.63
64889;BME280;51386;53.082;8.816;2023-04-01T07:25:31;99541.41;;;16.44;60.73
64889;BME280;51386;53.082;8.816;2023-04-01T07:28:04;99543.03;;;16.45;60.61
64889;BME280;51386;53.082;8.816;2023-04-01T07:30:46;99551.00;;;16.45;60.44
64889;BME280;51386;53.082;8.816;2023-04-01T07:33:19;99564.03;;;16.46;60.27
64889;BME280;51386;53.082;8.816;2023-04-01T07:35:56;99554.22;;;16.47;60.58
64889;BME280;51386;53.082;8.816;2023-04-01T07:38:39;99558.72;;;16.46;60.59
64889;BME280;51386;53.082;8.816;2023-04-01T07:41:23;99561.63;;;16.45;60.37
64889;BME280;51386;53.082;8.816;2023-04-01T07:44:06;99569.50;;;16.40;60.43
64889;BME280;51386;53.082;8.816;2023-04-01T07:47:02;99568.34;;;16.36;60.59
64889;BME280;51386;53.082;8.816;2023-04-01T07:49:44;99574.47;;;16.36;60.60
64889;BME280;51386;53.082;8.816;2023-04-01T07:52:23;99569.16;;;16.36;60.81
64889;BME280;51386;53.082;8.816;2023-04-01T07:55:06;99579.31;;;16.39;60.71
64889;BME280;51386;53.082;8.816;2023-04-01T07:57:43;99585.53;;;16.45;60.87
64889;BME280;51386;53.082;8.816;2023-04-01T08:00:19;99584.00;;;16.49;60.63
64889;BME280;51386;53.082;8.816;2023-04-01T08:03:20;99582.28;;;16.54;60.60
64889;BME280;51386;53.082;8.816;2023-04-01T08:05:55;99590.63;;;16.63;60.51
64889;BME280;51386;53.082;8.816;2023-04-01T08:08:39;99590.16;;;16.66;60.69
64889;BME280;51386;53.082;8.816;2023-04-01T08:11:28;99595.47;;;16.66;60.47
64889;BME280;51386;53.082;8.816;2023-04-01T08:14:08;99603.66;;;16.64;60.46
64889;BME280;51386;53.082;8.816;2023-04-01T08:16:46;99603.44;;;16.66;60.59
64889;BME280;51386;53.082;8.816;2023-04-01T08:19:31;99613.34;;;16.70;60.61
64889;BME280;51386;53.082;8.816;2023-04-01T08:22:14;99609.94;;;16.75;60.37
64889;BME280;51386;53.082;8.816;2023-04-01T08:24:46;99613.25;;;16.82;60.49
64889;BME280;51386;53.082;8.816;2023-04-01T08:27:23;99614.94;;;16.88;60.15
64889;BME280;51386;53.082;8.816;2023-04-01T08:30:01;99619.28;;;16.94;59.94
64889;BME280;51386;53.082;8.816;2023-04-01T08:32:35;99626.78;;;16.97;60.04
64889;BME280;51386;53.082;8.816;2023-04-01T08:35:14;99630.56;;;17.01;59.92
64889;BME280;51386;53.082;8.816;2023-04-01T08:37:45;99629.56;;;17.07;59.67
64889;BME280;51386;53.082;8.816;2023-04-01T08:40:51;99634.31;;;17.05;59.21
64889;BME280;51386;53.082;8.816;2023-04-01T08:44:11;99638.09;;;17.09;59.50
64889;BME280;51386;53.082;8.816;2023-04-01T08:47:29;99643.28;;;17.16;59.18
64889;BME280;51386;53.082;8.816;2023-04-01T08:50:26;99649.41;;;17.16;58.76
64889;BME280;51386;53.082;8.816;2023-04-01T08:53:06;99652.63;;;17.18;58.90
64889;BME280;51386;53.082;8.816;2023-04-01T08:55:56;99647.59;;;17.22;59.10
64889;BME280;51386;53.082;8.816;2023-04-01T08:58:54;99655.19;;;17.30;59.20
64889;BME280;51386;53.082;8.816;2023-04-01T09:02:04;99654.50;;;17.39;59.10
64889;BME280;51386;53.082;8.816;2023-04-01T09:05:20;99654.81;;;17.43;59.10
64889;BME280;51386;53.082;8.816;2023-04-01T09:08:02;99663.69;;;17.48;58.83
64889;BME280;51386;53.082;8.816;2023-04-01T09:10:56;99662.56;;;17.44;58.94
64889;BME280;51386;53.082;8.816;2023-04-01T09:13:59;99662.22;;;17.41;58.77
64889;BME280;51386;53.082;8.816;2023-04-01T09:17:01;99666.75;;;17.40;58.75
64889;BME280;51386;53.082;8.816;2023-04-01T09:20:02;99667.88;;;17.44;58.79
64889;BME280;51386;53.082;8.816;2023-04-01T09:22:54;99672.22;;;17.50;59.05
64889;BME280;51386;53.082;8.816;2023-04-01T09:25:46;99677.78;;;17.66;58.87
64889;BME280;51386;53.082;8.816;2023-04-01T09:28:20;99678.69;;;17.98;58.34
64889;BME280;51386;53.082;8.816;2023-04-01T09:31:32;99685.28;;;18.39;58.09
64889;BME280;51386;53.082;8.816;2023-04-01T09:34:41;99688.81;;;18.71;56.89
64889;BME280;51386;53.082;8.816;2023-04-01T09:37:30;99698.56;;;18.87;55.84
64889;BME280;51386;53.082;8.816;2023-04-01T09:40:18;99699.94;;;18.94;55.66
64889;BME280;51386;53.082;8.816;2023-04-01T09:43:16;99697.41;;;19.10;55.27
64889;BME280;51386;53.082;8.816;2023-04-01T09:46:14;99705.31;;;19.31;55.10
64889;BME280;51386;53.082;8.816;2023-04-01T09:52:18;99713.22;;;19.53;54.38
64889;BME280;51386;53.082;8.816;2023-04-01T09:55:27;99706.22;;;19.47;53.80
64889;BME280;51386;53.082;8.816;2023-04-01T09:58:51;99718.03;;;19.56;53.55
64889;BME280;51386;53.082;8.816;2023-04-01T10:01:43;99714.81;;;19.54;53.34
64889;BME280;51386;53.082;8.816;2023-04-01T10:05:13;99722.13;;;19.32;53.14
64889;BME280;51386;53.082;8.816;2023-04-01T10:08:33;99726.19;;;19.08;52.77
64889;BME280;51386;53.082;8.816;2023-04-01T10:14:53;99737.28;;;18.41;54.30
64889;BME280;51386;53.082;8.816;2023-04-01T10:17:59;99745.47;;;18.13;54.82
64889;BME280;51386;53.082;8.816;2023-04-01T10:21:04;99754.59;;;17.79;54.41
64889;BME280;51386;53.082;8.816;2023-04-01T10:24:02;99762.38;;;17.30;55.28
64889;BME280;51386;53.082;8.816;2023-04-01T10:27:08;99766.13;;;16.84;56.23
64889;BME280;51386;53.082;8.816;2023-04-01T10:30:05;99772.84;;;16.47;57.32
64889;BME280;51386;53.082;8.816;2023-04-01T10:36:47;99781.41;;;15.86;58.54
64889;BME280;51386;53.082;8.816;2023-04-01T10:40:12;99783.94;;;15.81;59.00
64889;BME280;51386;53.082;8.816;2023-04-01T10:46:35;99805.16;;;15.58;59.29
64889;BME280;51386;53.082;8.816;2023-04-01T10:50:13;99806.63;;;15.42;60.01
64889;BME280;51386;53.082;8.816;2023-04-01T10:53:11;99809.25;;;15.31;59.65
64889;BME280;51386;53.082;8.816;2023-04-01T10:56:15;99811.66;;;15.21;59.63
64889;BME280;51386;53.082;8.816;2023-04-01T10:59:20;99818.44;;;15.17;60.26
64889;BME280;51386;53.082;8.816;2023-04-01T11:02:45;99819.38;;;15.22;60.18
64889;BME280;51386;53.082;8.816;2023-04-01T11:06:03;99816.44;;;15.42;59.79
64889;BME280;51386;53.082;8.816;2023-04-01T11:09:19;99829.09;;;15.40;59.28
64889;BME280;51386;53.082;8.816;2023-04-01T11:15:41;99830.88;;;15.57;59.15
64889;BME280;51386;53.082;8.816;2023-04-01T11:22:01;99850.31;;;15.40;58.09
64889;BME280;51386;53.082;8.816;2023-04-01T11:25:09;99857.16;;;15.18;58.82
64889;BME280;51386;53.082;8.816;2023-04-01T11:31:03;99877.56;;;14.87;58.96
64889;BME280;51386;53.082;8.816;2023-04-01T11:33:37;99864.38;;;14.81;59.40
64889;BME280;51386;53.082;8.816;2023-04-01T11:36:28;99883.03;;;14.74;59.82
64889;BME280;51386;53.082;8.816;2023-04-01T11:39:14;99887.88;;;14.77;59.90
64889;BME280;51386;53.082;8.816;2023-04-01T11:41:56;99880.50;;;14.79;59.89
64889;BME280;51386;53.082;8.816;2023-04-01T11:44:29;99889.22;;;14.68;59.99
64889;BME280;51386;53.082;8.816;2023-04-01T11:47:22;99890.84;;;14.51;59.67
64889;BME280;51386;53.082;8.816;2023-04-01T11:50:10;99902.00;;;14.53;60.29
64889;BME280;51386;53.082;8.816;2023-04-01T11:53:14;99907.47;;;14.58;60.57
64889;BME280;51386;53.082;8.816;2023-04-01T11:55:58;99915.31;;;14.65;60.24
64889;BME280;51386;53.082;8.816;2023-04-01T11:58:51;99921.00;;;14.68;60.17
64889;BME280;51386;53.082;8.816;2023-04-01T12:01:36;99920.53;;;14.71;59.86
64889;BME280;51386;53.082;8.816;2023-04-01T12:04:37;99920.84;;;14.81;59.48
64889;BME280;51386;53.082;8.816;2023-04-01T12:07:19;99929.75;;;14.87;59.42
64889;BME280;51386;53.082;8.816;2023-04-01T12:09:58;99928.50;;;14.89;59.54
64889;BME280;51386;53.082;8.816;2023-04-01T12:12:42;99936.59;;;14.95;59.38
64889;BME280;51386;53.082;8.816;2023-04-01T12:15:48;99947.84;;;15.08;59.27
64889;BME280;51386;53.082;8.816;2023-04-01T12:18:28;99935.31;;;15.15;58.57
64889;BME280;51386;53.082;8.816;2023-04-01T12:21:17;99951.31;;;15.09;58.40
64889;BME280;51386;53.082;8.816;2023-04-01T12:30:43;99962.34;;;14.69;59.45
64889;BME280;51386;53.082;8.816;2023-04-01T12:33:35;99971.03;;;14.76;59.28
64889;BME280;51386;53.082;8.816;2023-04-01T12:36:26;99973.25;;;14.79;58.84
64889;BME280;51386;53.082;8.816;2023-04-01T12:39:21;99980.59;;;14.77;58.44
64889;BME280;51386;53.082;8.816;2023-04-01T12:42:00;99981.03;;;14.74;58.09
64889;BME280;51386;53.082;8.816;2023-04-01T12:44:51;99985.75;;;14.72;58.81
64889;BME280;51386;53.082;8.816;2023-04-01T12:47:42;99991.47;;;14.69;58.72
64889;BME280;51386;53.082;8.816;2023-04-01T12:50:43;99994.28;;;14.74;57.98
64889;BME280;51386;53.082;8.816;2023-04-01T12:53:37;99995.50;;;14.78;58.23
64889;BME280;51386;53.082;8.816;2023-04-01T12:56:18;100008.13;;;14.76;58.52
64889;BME280;51386;53.082;8.816;2023-04-01T12:59:23;100009.00;;;14.70;58.33
64889;BME280;51386;53.082;8.816;2023-04-01T13:02:05;100010.47;;;14.66;58.34
64889;BME280;51386;53.082;8.816;2023-04-01T13:08:14;100020.78;;;14.74;58.66
64889;BME280;51386;53.082;8.816;2023-04-01T13:11:08;100030.19;;;14.70;58.37
64889;BME280;51386;53.082;8.816;2023-04-01T13:14:29;100022.09;;;14.65;58.18
64889;BME280;51386;53.082;8.816;2023-04-01T13:17:12;100040.53;;;14.54;58.24
64889;BME280;51386;53.082;8.816;2023-04-01T13:19:52;100035.47;;;14.52;58.54
64889;BME280;51386;53.082;8.816;2023-04-01T13:22:48;100045.16;;;14.40;58.39
64889;BME280;51386;53.082;8.816;2023-04-01T13:25:29;100054.84;;;14.46;58.25
64889;BME280;51386;53.082;8.816;2023-04-01T13:28:12;100061.78;;;14.47;58.19
64889;BME280;51386;53.082;8.816;2023-04-01T13:30:51;100066.03;;;14.48;57.88
64889;BME280;51386;53.082;8.816;2023-04-01T13:33:32;100071.50;;;14.53;58.00
64889;BME280;51386;53.082;8.816;2023-04-01T13:36:18;100071.44;;;14.60;58.34
64889;BME280;51386;53.082;8.816;2023-04-01T13:39:31;100080.03;;;14.55;58.35
64889;BME280;51386;53.082;8.816;2023-04-01T13:42:16;100079.69;;;14.52;57.88
64889;BME280;51386;53.082;8.816;2023-04-01T13:44:51;100081.75;;;14.43;58.27
64889;BME280;51386;53.082;8.816;2023-04-01T13:47:57;100092.47;;;14.30;58.68
64889;BME280;51386;53.082;8.816;2023-04-01T13:50:45;100100.44;;;14.17;58.93
64889;BME280;51386;53.082;8.816;2023-04-01T13:54:09;100110.09;;;14.05;59.86
64889;BME280;51386;53.082;8.816;2023-04-01T13:56:57;100114.59;;;13.98;59.67
64889;BME280;51386;53.082;8.816;2023-04-01T13:59:50;100124.84;;;13.81;60.41
64889;BME280;51386;53.082;8.816;2023-04-01T14:02:49;100135.47;;;13.75;60.55
64889;BME280;51386;53.082;8.816;2023-04-01T14:05:51;100130.44;;;13.67;60.45
64889;BME280;51386;53.082;8.816;2023-04-01T14:08:36;100132.09;;;13.61;60.74
64889;BME280;51386;53.082;8.816;2023-04-01T14:11:21;100138.75;;;13.70;61.29
64889;BME280;51386;53.082;8.816;2023-04-01T14:14:05;100141.44;;;13.64;60.69
64889;BME280;51386;53.082;8.816;2023-04-01T14:17:15;100149.38;;;13.64;60.68
64889;BME280;51386;53.082;8.816;2023-04-01T14:20:21;100143.84;;;13.65;60.86
64889;BME280;51386;53.082;8.816;2023-04-01T14:23:13;100159.34;;;13.62;60.42
64889;BME280;51386;53.082;8.816;2023-04-01T14:26:12;100165.69;;;13.47;60.73
64889;BME280;51386;53.082;8.816;2023-04-01T14:28:53;100178.72;;;13.42;60.53
64889;BME280;51386;53.082;8.816;2023-04-01T14:31:35;100179.16;;;13.26;60.62
64889;BME280;51386;53.082;8.816;2023-04-01T14:34:21;100178.75;;;13.23;61.08
64889;BME280;51386;53.082;8.816;2023-04-01T14:37:29;100187.66;;;13.22;61.39
64889;BME280;51386;53.082;8.816;2023-04-01T14:40:26;100193.97;;;13.27;61.13
64889;BME280;51386;53.082;8.816;2023-04-01T14:43:31;100191.50;;;13.39;61.25
64889;BME280;51386;53.082;8.816;2023-04-01T14:46:17;100197.81;;;13.51;60.88
64889;BME280;51386;53.082;8.816;2023-04-01T14:48:53;100202.91;;;13.52;60.24